Time;durP1;ratioP1;P1;durP2;ratioP2;P2;SDS_P1;SDS_P2;PMS_P1;PMS_P2;Temp;Humidity;BMP_temperature;BMP_pressure;BME280_temperature;BME280_humidity;BME280_pressure;Samples;Min_cycle;Max_cycle;Signal;HPM_P1;HPM_P2
2022/05/05 00:02:19;;;;;;;;;;;15.50;92.00;;;;;;4346071;33;42733;-79
2022/05/05 00:04:46;;;;;;;;;;;15.50;92.00;;;;;;4345970;33;44271;-79
2022/05/05 00:07:17;;;;;;;;;;;15.40;92.00;;;;;;4358163;32;44111;-79
2022/05/05 00:09:44;;;;;;;;;;;15.40;92.00;;;;;;4346094;33;43783;-79
2022/05/05 00:14:56;;;;;;;;;;;15.40;92.20;;;;;;4346958;33;44607;-79
2022/05/05 00:17:25;;;;;;;;;;;15.40;92.20;;;;;;4358656;32;43260;-79
2022/05/05 00:19:52;;;;;;;;;;;15.40;92.20;;;;;;4346823;33;43662;-79
2022/05/05 00:22:19;;;;;;;;;;;15.30;92.20;;;;;;4346323;33;43490;-79
2022/05/05 00:24:47;;;;;;;;;;;15.40;92.30;;;;;;4347065;33;43156;-79
2022/05/05 00:27:14;;;;;;;;;;;15.30;92.20;;;;;;4346695;32;45061;-79
2022/05/05 00:29:41;;;;;;;;;;;15.30;92.20;;;;;;4347116;33;42931;-79
2022/05/05 00:32:08;;;;;;;;;;;15.30;92.20;;;;;;4347041;33;42743;-79
2022/05/05 00:34:35;;;;;;;;;;;15.30;92.20;;;;;;4346719;33;42525;-79
2022/05/05 00:37:05;;;;;;;;;;;15.30;92.20;;;;;;4346791;33;43467;-79
2022/05/05 00:39:35;;;;;;;;;;;15.30;92.20;;;;;;4346674;33;42489;-79
2022/05/05 00:42:05;;;;;;;;;;;15.20;92.10;;;;;;4345948;33;42596;-80
2022/05/05 00:44:36;;;;;;;;;;;15.20;92.30;;;;;;4345395;33;44800;-80
2022/05/05 00:47:03;;;;;;;;;;;15.20;92.20;;;;;;4347014;33;43157;-79
2022/05/05 00:49:30;;;;;;;;;;;15.20;92.30;;;;;;4346623;33;43709;-79
2022/05/05 00:52:03;;;;;;;;;;;15.20;92.20;;;;;;4357636;32;43097;-79
2022/05/05 00:54:30;;;;;;;;;;;15.20;92.20;;;;;;4346249;32;43353;-79
2022/05/05 00:56:58;;;;;;;;;;;15.20;92.20;;;;;;4357514;32;43217;-80
2022/05/05 00:59:25;;;;;;;;;;;15.10;92.20;;;;;;4345165;33;43936;-80
2022/05/05 01:01:52;;;;;;;;;;;15.20;92.30;;;;;;4345233;33;42784;-80
2022/05/05 01:04:20;;;;;;;;;;;15.20;92.40;;;;;;4346739;33;44582;-79
2022/05/05 01:06:50;;;;;;;;;;;15.20;92.40;;;;;;4346159;33;43031;-80
2022/05/05 01:09:19;;;;;;;;;;;15.20;92.40;;;;;;4346357;33;42644;-79
2022/05/05 01:11:46;;;;;;;;;;;15.10;92.40;;;;;;4357827;32;42606;-80
2022/05/05 01:14:17;;;;;;;;;;;15.10;92.50;;;;;;4345145;33;42757;-79
2022/05/05 01:16:47;;;;;;;;;;;15.10;92.40;;;;;;4346044;33;42513;-79
2022/05/05 01:19:14;;;;;;;;;;;15.10;92.40;;;;;;4346004;33;44181;-79
2022/05/05 01:21:51;;;;;;;;;;;15.10;92.40;;;;;;4346557;33;43798;-79
2022/05/05 01:28:10;;;;;;;;;;;15.00;92.40;;;;;;4357637;32;41897;-79
2022/05/05 01:29:57;;;;;;;;;;;15.00;92.50;;;;;;4345932;33;42804;-80
2022/05/05 01:32:33;;;;;;;;;;;15.00;92.40;;;;;;4346224;33;43542;-79
2022/05/05 01:35:07;;;;;;;;;;;15.00;92.70;;;;;;4357482;32;43479;-79
2022/05/05 01:37:37;;;;;;;;;;;15.00;92.30;;;;;;4345176;33;43875;-79
2022/05/05 01:40:04;;;;;;;;;;;15.00;92.40;;;;;;4345722;33;43765;-79
2022/05/05 01:42:34;;;;;;;;;;;14.90;92.50;;;;;;4344523;33;45704;-79
2022/05/05 01:45:04;;;;;;;;;;;14.90;92.80;;;;;;4346033;33;43288;-79
2022/05/05 01:47:36;;;;;;;;;;;14.90;92.50;;;;;;4345819;33;44767;-79
2022/05/05 01:50:07;;;;;;;;;;;14.90;92.50;;;;;;4345153;33;45809;-79
2022/05/05 01:52:36;;;;;;;;;;;14.90;92.50;;;;;;4344790;33;43718;-80
2022/05/05 01:55:04;;;;;;;;;;;14.90;92.60;;;;;;4345978;33;43049;-79
2022/05/05 01:57:34;;;;;;;;;;;14.90;92.60;;;;;;4357113;32;44191;-80
2022/05/05 02:00:03;;;;;;;;;;;14.80;92.70;;;;;;4344436;33;43205;-79
2022/05/05 02:02:33;;;;;;;;;;;14.80;92.60;;;;;;4344306;33;43283;-79
2022/05/05 02:05:01;;;;;;;;;;;14.80;92.70;;;;;;4356497;32;44211;-79
2022/05/05 02:07:28;;;;;;;;;;;14.80;92.60;;;;;;4344678;33;43664;-79
2022/05/05 02:10:01;;;;;;;;;;;14.80;92.70;;;;;;4345282;33;42878;-79
2022/05/05 02:12:32;;;;;;;;;;;14.80;92.70;;;;;;4345701;32;45717;-79
2022/05/05 02:15:02;;;;;;;;;;;14.80;92.70;;;;;;4344307;33;42833;-79
2022/05/05 02:17:29;;;;;;;;;;;14.80;92.80;;;;;;4345403;33;42907;-79
2022/05/05 02:19:58;;;;;;;;;;;14.80;92.80;;;;;;4345661;33;43008;-79
2022/05/05 02:22:25;;;;;;;;;;;14.80;92.80;;;;;;4345640;33;43494;-79
2022/05/05 02:24:52;;;;;;;;;;;14.70;92.80;;;;;;4345284;33;44803;-79
2022/05/05 02:27:25;;;;;;;;;;;14.70;92.70;;;;;;4345053;33;43481;-79
2022/05/05 02:29:53;;;;;;;;;;;14.70;92.80;;;;;;4345668;33;43475;-79
2022/05/05 02:32:25;;;;;;;;;;;14.70;92.80;;;;;;4345029;33;43732;-79
2022/05/05 02:34:58;;;;;;;;;;;14.70;92.80;;;;;;4345490;33;43475;-79
2022/05/05 02:40:11;;;;;;;;;;;14.60;92.80;;;;;;4345364;33;42130;-79
2022/05/05 02:42:38;;;;;;;;;;;14.60;92.80;;;;;;4345026;33;43484;-79
2022/05/05 02:45:05;;;;;;;;;;;14.60;92.80;;;;;;4343978;33;41770;-79
2022/05/05 02:47:34;;;;;;;;;;;14.60;92.90;;;;;;4345270;33;43496;-79
2022/05/05 02:50:05;;;;;;;;;;;14.60;92.90;;;;;;4345425;33;42814;-79
2022/05/05 02:52:37;;;;;;;;;;;14.50;92.90;;;;;;4346258;33;20001;-79
2022/05/05 02:55:07;;;;;;;;;;;14.50;92.90;;;;;;4345420;33;44258;-79
2022/05/05 02:57:39;;;;;;;;;;;14.50;92.80;;;;;;4343844;33;43341;-79
2022/05/05 03:00:07;;;;;;;;;;;14.50;92.90;;;;;;4345313;33;44292;-79
2022/05/05 03:02:37;;;;;;;;;;;14.40;93.00;;;;;;4352489;33;44199;-79
2022/05/05 03:05:07;;;;;;;;;;;14.40;93.10;;;;;;4360124;33;44045;-79
2022/05/05 03:07:37;;;;;;;;;;;14.40;93.20;;;;;;4359800;33;43403;-79
2022/05/05 03:10:05;;;;;;;;;;;14.40;93.20;;;;;;4359556;33;44196;-79
2022/05/05 03:12:32;;;;;;;;;;;14.40;93.10;;;;;;4359994;33;44287;-79
2022/05/05 03:14:59;;;;;;;;;;;14.40;93.20;;;;;;4359366;33;43251;-79
2022/05/05 03:17:29;;;;;;;;;;;14.40;93.20;;;;;;4359553;33;43058;-79
2022/05/05 03:19:58;;;;;;;;;;;14.40;93.20;;;;;;4360122;33;44090;-79
2022/05/05 03:22:26;;;;;;;;;;;14.40;93.20;;;;;;4359458;33;42772;-79
2022/05/05 03:24:53;;;;;;;;;;;14.40;93.20;;;;;;4360003;33;45575;-79
2022/05/05 03:27:25;;;;;;;;;;;14.30;93.10;;;;;;4346487;33;44497;-79
2022/05/05 03:29:54;;;;;;;;;;;14.30;93.20;;;;;;4359788;33;43042;-79
2022/05/05 03:32:22;;;;;;;;;;;14.30;93.10;;;;;;4359584;33;43739;-79
2022/05/05 03:34:52;;;;;;;;;;;14.30;93.20;;;;;;4359847;33;43200;-80
2022/05/05 03:37:22;;;;;;;;;;;14.30;93.30;;;;;;4346627;33;43917;-79
2022/05/05 03:39:49;;;;;;;;;;;14.20;93.20;;;;;;4359377;33;42479;-79
2022/05/05 03:42:17;;;;;;;;;;;14.30;93.20;;;;;;4358131;33;45038;-79
2022/05/05 03:44:50;;;;;;;;;;;14.20;93.30;;;;;;4346207;33;43592;-79
2022/05/05 03:47:17;;;;;;;;;;;14.20;93.40;;;;;;4358940;33;43724;-79
2022/05/05 03:49:44;;;;;;;;;;;14.10;93.50;;;;;;4359347;33;44062;-79
2022/05/05 03:52:12;;;;;;;;;;;14.10;93.50;;;;;;4345953;33;43599;-79
2022/05/05 03:54:41;;;;;;;;;;;14.10;93.60;;;;;;4360453;32;20464;-79
2022/05/05 03:57:08;;;;;;;;;;;14.10;93.60;;;;;;4361224;32;44359;-79
2022/05/05 03:59:44;;;;;;;;;;;14.10;93.70;;;;;;4361953;32;44180;-79
2022/05/05 04:02:14;;;;;;;;;;;14.10;93.80;;;;;;4348645;32;44111;-79
2022/05/05 04:04:41;;;;;;;;;;;14.10;93.70;;;;;;4348540;32;42666;-79
2022/05/05 04:07:11;;;;;;;;;;;14.10;93.70;;;;;;4348609;32;44211;-79
2022/05/05 04:09:44;;;;;;;;;;;14.10;93.60;;;;;;4348911;32;43618;-79
2022/05/05 04:12:20;;;;;;;;;;;14.10;93.70;;;;;;4361337;32;43718;-80
2022/05/05 04:14:51;;;;;;;;;;;14.10;93.60;;;;;;4349109;32;44202;-80
2022/05/05 04:17:18;;;;;;;;;;;14.00;93.70;;;;;;4361085;32;43871;-79
2022/05/05 04:19:51;;;;;;;;;;;14.00;93.70;;;;;;4348347;32;42605;-79
2022/05/05 04:22:24;;;;;;;;;;;14.00;93.70;;;;;;4362111;32;44273;-80
2022/05/05 04:24:53;;;;;;;;;;;14.00;93.80;;;;;;4362738;32;20056;-79
2022/05/05 04:27:20;;;;;;;;;;;14.00;93.70;;;;;;4348714;32;44798;-79
2022/05/05 04:29:50;;;;;;;;;;;14.00;93.80;;;;;;4361864;32;44217;-79
2022/05/05 04:32:18;;;;;;;;;;;14.00;93.90;;;;;;4361461;32;44191;-79
2022/05/05 04:34:50;;;;;;;;;;;14.00;93.90;;;;;;4361456;32;42897;-79
2022/05/05 04:37:30;;;;;;;;;;;13.90;93.90;;;;;;4349267;32;43554;-79
2022/05/05 04:40:02;;;;;;;;;;;13.90;94.00;;;;;;4361997;32;44779;-79
2022/05/05 04:42:32;;;;;;;;;;;13.90;94.20;;;;;;4348509;32;42305;-80
2022/05/05 04:45:07;;;;;;;;;;;13.90;94.30;;;;;;4361199;32;44899;-79
2022/05/05 04:47:43;;;;;;;;;;;13.80;94.40;;;;;;4348874;32;45078;-79
2022/05/05 04:50:11;;;;;;;;;;;13.90;94.40;;;;;;4361784;32;44084;-79
2022/05/05 04:52:39;;;;;;;;;;;13.90;94.50;;;;;;4361717;32;44282;-79
2022/05/05 04:55:06;;;;;;;;;;;13.90;94.50;;;;;;4348634;32;20001;-79
2022/05/05 04:57:35;;;;;;;;;;;13.90;94.60;;;;;;4360431;32;43050;-79
2022/05/05 05:00:08;;;;;;;;;;;13.90;94.60;;;;;;4348039;32;44225;-80
2022/05/05 05:02:38;;;;;;;;;;;13.90;94.80;;;;;;4361467;32;43343;-79
2022/05/05 05:05:06;;;;;;;;;;;13.90;94.90;;;;;;4361648;32;43187;-79
2022/05/05 05:07:35;;;;;;;;;;;13.80;94.90;;;;;;4360206;32;43918;-79
2022/05/05 05:10:05;;;;;;;;;;;13.80;95.00;;;;;;4360918;32;43505;-79
2022/05/05 05:12:35;;;;;;;;;;;13.80;95.10;;;;;;4359899;32;43683;-79
2022/05/05 05:15:05;;;;;;;;;;;13.90;95.10;;;;;;4347642;32;43775;-79
2022/05/05 05:17:35;;;;;;;;;;;13.90;95.30;;;;;;4361394;32;43883;-79
2022/05/05 05:20:03;;;;;;;;;;;13.90;95.30;;;;;;4360863;32;42279;-79
2022/05/05 05:22:32;;;;;;;;;;;13.80;95.30;;;;;;4347373;32;44040;-79
2022/05/05 05:25:02;;;;;;;;;;;13.80;95.50;;;;;;4360281;32;45699;-79
2022/05/05 05:27:30;;;;;;;;;;;13.80;95.60;;;;;;4361347;32;45854;-79
2022/05/05 05:30:00;;;;;;;;;;;13.80;95.50;;;;;;4360792;32;42439;-79
2022/05/05 05:32:27;;;;;;;;;;;13.80;95.60;;;;;;4360647;32;43455;-79
2022/05/05 05:34:54;;;;;;;;;;;13.80;95.70;;;;;;4347197;32;44866;-79
2022/05/05 05:37:32;;;;;;;;;;;13.80;95.90;;;;;;4360495;32;45254;-79
2022/05/05 05:39:59;;;;;;;;;;;13.80;95.80;;;;;;4361094;32;46087;-79
2022/05/05 05:42:32;;;;;;;;;;;13.80;96.00;;;;;;4360459;32;43362;-79
2022/05/05 05:45:02;;;;;;;;;;;13.90;96.00;;;;;;4361129;32;43206;-79
2022/05/05 05:47:34;;;;;;;;;;;13.90;96.30;;;;;;4360968;32;42942;-79
2022/05/05 05:50:04;;;;;;;;;;;13.90;96.60;;;;;;4360924;32;43968;-79
2022/05/05 05:52:33;;;;;;;;;;;13.90;96.70;;;;;;4360426;32;42818;-80
2022/05/05 05:55:03;;;;;;;;;;;13.90;96.30;;;;;;4360606;32;42423;-79
2022/05/05 05:57:37;;;;;;;;;;;13.90;96.50;;;;;;4360565;32;20052;-79
2022/05/05 06:00:04;;;;;;;;;;;13.90;96.40;;;;;;4347473;32;43941;-79
2022/05/05 06:05:21;;;;;;;;;;;13.90;96.30;;;;;;4360416;32;44186;-79
2022/05/05 06:07:51;;;;;;;;;;;13.90;96.20;;;;;;4360354;32;44677;-79
2022/05/05 06:10:21;;;;;;;;;;;13.90;96.10;;;;;;4347493;32;42939;-79
2022/05/05 06:12:48;;;;;;;;;;;13.90;96.00;;;;;;4360055;32;45145;-79
2022/05/05 06:15:17;;;;;;;;;;;13.90;96.10;;;;;;4360009;32;42600;-79
2022/05/05 06:17:50;;;;;;;;;;;13.90;96.30;;;;;;4360476;32;44230;-81
2022/05/05 06:20:22;;;;;;;;;;;13.90;96.60;;;;;;4346491;32;44736;-78
2022/05/05 06:22:52;;;;;;;;;;;13.90;96.50;;;;;;4360585;32;43281;-79
2022/05/05 06:25:24;;;;;;;;;;;13.90;96.50;;;;;;4360591;32;44239;-79
2022/05/05 06:27:54;;;;;;;;;;;13.90;96.50;;;;;;4347285;32;20511;-79
2022/05/05 06:30:21;;;;;;;;;;;14.00;96.40;;;;;;4359468;32;43664;-79
2022/05/05 06:32:51;;;;;;;;;;;13.90;96.40;;;;;;4346526;32;42779;-79
2022/05/05 06:35:21;;;;;;;;;;;14.00;96.50;;;;;;4359829;32;43792;-80
2022/05/05 06:37:51;;;;;;;;;;;13.90;96.50;;;;;;4346835;32;43180;-80
2022/05/05 06:40:19;;;;;;;;;;;13.90;96.50;;;;;;4359948;32;44192;-80
2022/05/05 06:42:48;;;;;;;;;;;14.00;96.70;;;;;;4360408;32;45251;-80
2022/05/05 06:45:15;;;;;;;;;;;14.00;97.00;;;;;;4346430;32;44025;-79
2022/05/05 06:47:42;;;;;;;;;;;14.00;97.20;;;;;;4360009;32;43499;-80
2022/05/05 06:50:09;;;;;;;;;;;14.00;97.50;;;;;;4359730;32;42887;-79
2022/05/05 06:52:41;;;;;;;;;;;14.00;97.70;;;;;;4359606;32;42850;-79
2022/05/05 06:55:12;;;;;;;;;;;14.10;97.90;;;;;;4360242;32;43355;-79
2022/05/05 06:57:39;;;;;;;;;;;14.00;97.50;;;;;;4359855;32;42850;-79
2022/05/05 07:00:06;;;;;;;;;;;14.10;97.80;;;;;;4359663;33;43844;-80
2022/05/05 07:02:36;;;;;;;;;;;14.00;97.70;;;;;;4346469;33;43599;-80
2022/05/05 07:07:50;;;;;;;;;;;14.10;97.50;;;;;;4359956;33;42198;-80
2022/05/05 07:13:07;;;;;;;;;;;14.10;97.30;;;;;;4360093;33;43033;-80
2022/05/05 07:15:34;;;;;;;;;;;14.00;97.50;;;;;;4358715;33;44213;-80
2022/05/05 07:18:01;;;;;;;;;;;14.00;97.50;;;;;;4346277;33;43382;-80
2022/05/05 07:20:34;;;;;;;;;;;14.10;97.40;;;;;;4358463;33;43663;-80
2022/05/05 07:23:05;;;;;;;;;;;14.10;97.30;;;;;;4346858;33;44187;-79
2022/05/05 07:25:35;;;;;;;;;;;14.10;97.30;;;;;;4359904;33;43985;-80
2022/05/05 07:28:03;;;;;;;;;;;14.10;97.40;;;;;;4358838;33;43325;-80
2022/05/05 07:30:33;;;;;;;;;;;14.10;97.40;;;;;;4361018;32;44130;-80
2022/05/05 07:33:01;;;;;;;;;;;14.00;97.40;;;;;;4362437;32;43767;-80
2022/05/05 07:35:31;;;;;;;;;;;14.00;97.60;;;;;;4362423;32;44723;-80
2022/05/05 07:38:00;;;;;;;;;;;14.10;97.50;;;;;;4361580;32;44753;-80
2022/05/05 07:40:32;;;;;;;;;;;14.10;97.80;;;;;;4362559;32;45311;-80
2022/05/05 07:43:01;;;;;;;;;;;14.00;97.80;;;;;;4362387;32;43964;-80
2022/05/05 07:45:31;;;;;;;;;;;14.10;97.70;;;;;;4362635;32;44064;-80
2022/05/05 07:48:02;;;;;;;;;;;14.10;97.50;;;;;;4349163;32;44862;-80
2022/05/05 07:50:32;;;;;;;;;;;14.00;97.30;;;;;;4349423;32;44039;-80
2022/05/05 07:52:59;;;;;;;;;;;14.10;97.40;;;;;;4348803;32;42056;-80
2022/05/05 07:55:34;;;;;;;;;;;14.10;97.30;;;;;;4362536;32;44307;-80
2022/05/05 07:58:02;;;;;;;;;;;14.10;97.40;;;;;;4361458;32;45857;-80
2022/05/05 08:00:29;;;;;;;;;;;14.10;97.50;;;;;;4362966;32;20001;-80
2022/05/05 08:02:59;;;;;;;;;;;14.10;97.30;;;;;;4361839;32;43391;-79
2022/05/05 08:05:31;;;;;;;;;;;14.10;97.10;;;;;;4349484;32;43244;-80
2022/05/05 08:08:01;;;;;;;;;;;14.10;97.10;;;;;;4361843;32;43892;-80
2022/05/05 08:10:29;;;;;;;;;;;14.10;96.90;;;;;;4361868;32;44239;-79
2022/05/05 08:12:59;;;;;;;;;;;14.10;96.90;;;;;;4362142;32;43644;-79
2022/05/05 08:15:27;;;;;;;;;;;14.10;97.00;;;;;;4362203;32;44233;-80
2022/05/05 08:17:57;;;;;;;;;;;14.20;97.20;;;;;;4361759;32;43030;-80
2022/05/05 08:20:28;;;;;;;;;;;14.20;97.30;;;;;;4348920;32;43473;-80
2022/05/05 08:22:58;;;;;;;;;;;14.20;97.30;;;;;;4361975;32;42430;-80
2022/05/05 08:28:28;;;;;;;;;;;14.20;97.20;;;;;;4362238;32;43216;-80
2022/05/05 08:30:56;;;;;;;;;;;14.20;97.20;;;;;;4362465;32;20031;-80
2022/05/05 08:33:29;;;;;;;;;;;14.20;97.20;;;;;;4348185;32;43232;-79
2022/05/05 08:35:57;;;;;;;;;;;14.20;97.20;;;;;;4362070;32;44038;-79
2022/05/05 08:38:29;;;;;;;;;;;14.20;97.10;;;;;;4360830;32;44796;-80
2022/05/05 08:40:59;;;;;;;;;;;14.20;97.10;;;;;;4360102;32;44191;-80
2022/05/05 08:43:32;;;;;;;;;;;14.30;97.30;;;;;;4359932;32;43141;-80
2022/05/05 08:46:23;;;;;;;;;;;14.20;97.20;;;;;;4350365;32;45982;-79
2022/05/05 08:48:51;;;;;;;;;;;14.30;97.30;;;;;;4360915;32;43306;-80
2022/05/05 08:51:18;;;;;;;;;;;14.30;97.20;;;;;;4361431;32;42477;-79
2022/05/05 08:53:55;;;;;;;;;;;14.30;97.40;;;;;;4361626;32;42935;-79
2022/05/05 08:56:24;;;;;;;;;;;14.30;97.20;;;;;;4361609;32;43805;-79
2022/05/05 08:58:52;;;;;;;;;;;14.30;97.20;;;;;;4361347;32;44772;-79
2022/05/05 09:01:27;;;;;;;;;;;14.30;97.30;;;;;;4349075;32;20110;-79
2022/05/05 09:03:59;;;;;;;;;;;14.30;97.10;;;;;;4348251;32;43990;-80
2022/05/05 09:06:39;;;;;;;;;;;14.30;97.10;;;;;;4348136;32;44192;-79
2022/05/05 09:09:24;;;;;;;;;;;14.30;97.00;;;;;;4361420;32;42529;-79
2022/05/05 09:12:10;;;;;;;;;;;14.30;96.90;;;;;;4348280;32;42870;-80
2022/05/05 09:14:55;;;;;;;;;;;14.30;96.90;;;;;;4348017;32;44198;-78
2022/05/05 09:17:27;;;;;;;;;;;14.30;96.80;;;;;;4348322;32;43871;-79
2022/05/05 09:19:54;;;;;;;;;;;14.30;96.90;;;;;;4361469;32;43304;-79
2022/05/05 09:22:26;;;;;;;;;;;14.40;96.90;;;;;;4361297;32;43981;-79
2022/05/05 09:24:57;;;;;;;;;;;14.40;96.90;;;;;;4347927;32;44132;-79
2022/05/05 09:27:31;;;;;;;;;;;14.40;96.80;;;;;;4361267;32;43473;-80
2022/05/05 09:30:04;;;;;;;;;;;14.40;96.90;;;;;;4361010;32;42048;-79
2022/05/05 09:32:41;;;;;;;;;;;14.40;97.10;;;;;;4348355;32;20001;-79
2022/05/05 09:35:21;;;;;;;;;;;14.40;96.90;;;;;;4361186;32;43473;-79
2022/05/05 09:37:54;;;;;;;;;;;14.40;97.00;;;;;;4361000;32;43736;-79
2022/05/05 09:40:24;;;;;;;;;;;14.40;96.90;;;;;;4360857;32;43018;-79
2022/05/05 09:42:55;;;;;;;;;;;14.40;96.90;;;;;;4360793;32;41794;-79
2022/05/05 09:45:25;;;;;;;;;;;14.40;97.00;;;;;;4361215;32;43529;-81
2022/05/05 09:48:01;;;;;;;;;;;14.40;96.90;;;;;;4359881;32;43955;-79
2022/05/05 09:50:29;;;;;;;;;;;14.50;97.10;;;;;;4360947;32;43478;-79
2022/05/05 09:58:38;;;;;;;;;;;14.50;97.10;;;;;;4360845;32;43897;-79
2022/05/05 10:01:13;;;;;;;;;;;14.50;97.30;;;;;;4347758;32;43680;-79
2022/05/05 10:04:03;;;;;;;;;;;14.50;97.20;;;;;;4360533;32;43849;-79
2022/05/05 10:06:41;;;;;;;;;;;14.60;97.20;;;;;;4347605;32;43648;-79
2022/05/05 10:09:14;;;;;;;;;;;14.60;97.20;;;;;;4360758;32;43018;-79
2022/05/05 10:11:45;;;;;;;;;;;14.60;97.30;;;;;;4347105;32;42870;-79
2022/05/05 10:14:13;;;;;;;;;;;14.60;97.30;;;;;;4347374;32;43579;-80
2022/05/05 10:16:41;;;;;;;;;;;14.60;97.30;;;;;;4346975;32;43947;-79
2022/05/05 10:19:15;;;;;;;;;;;14.60;97.50;;;;;;4346710;32;43421;-79
2022/05/05 10:21:52;;;;;;;;;;;14.60;97.30;;;;;;4359416;32;43681;-79
2022/05/05 10:24:22;;;;;;;;;;;14.60;97.30;;;;;;4346743;32;42614;-79
2022/05/05 10:26:50;;;;;;;;;;;14.70;97.40;;;;;;4346732;32;44325;-79
2022/05/05 10:29:43;;;;;;;;;;;14.70;97.40;;;;;;4347147;32;43149;-79
2022/05/05 10:32:11;;;;;;;;;;;14.60;97.30;;;;;;4356629;32;44136;-79
2022/05/05 10:34:39;;;;;;;;;;;14.60;97.10;;;;;;4360413;32;44184;-80
2022/05/05 10:37:12;;;;;;;;;;;14.70;97.10;;;;;;4360371;32;43798;-79
2022/05/05 10:39:41;;;;;;;;;;;14.70;97.10;;;;;;4347050;32;43052;-80
2022/05/05 10:42:13;;;;;;;;;;;14.70;97.20;;;;;;4358702;32;43058;-80
2022/05/05 10:44:59;;;;;;;;;;;14.70;97.20;;;;;;4360274;32;43374;-79
2022/05/05 10:47:28;;;;;;;;;;;14.70;97.10;;;;;;4346880;32;43193;-79
2022/05/05 10:49:58;;;;;;;;;;;14.70;97.10;;;;;;4360311;32;43013;-80
2022/05/05 10:52:29;;;;;;;;;;;14.70;97.10;;;;;;4359639;32;42728;-79
2022/05/05 10:54:56;;;;;;;;;;;14.70;97.20;;;;;;4360142;32;42346;-79
2022/05/05 10:57:26;;;;;;;;;;;14.70;97.30;;;;;;4359735;32;44160;-80
2022/05/05 11:00:13;;;;;;;;;;;14.70;97.20;;;;;;4346459;33;42847;-80
2022/05/05 11:02:56;;;;;;;;;;;14.80;97.20;;;;;;4343652;33;43127;-79
2022/05/05 11:05:30;;;;;;;;;;;14.80;97.20;;;;;;4348515;33;24397;-80
2022/05/05 11:08:07;;;;;;;;;;;14.70;97.20;;;;;;4350285;33;43698;-80
2022/05/05 11:10:41;;;;;;;;;;;14.80;97.30;;;;;;4350237;33;43478;-80
2022/05/05 11:13:28;;;;;;;;;;;14.80;97.30;;;;;;4348939;33;42447;-80
2022/05/05 11:22:06;;;;;;;;;;;14.80;97.20;;;;;;4350197;33;44154;-80
2022/05/05 11:24:41;;;;;;;;;;;14.80;97.30;;;;;;4348452;33;45536;-79
2022/05/05 11:27:10;;;;;;;;;;;14.80;97.20;;;;;;4361076;32;43828;-80
2022/05/05 11:29:38;;;;;;;;;;;14.90;97.30;;;;;;4348591;33;43390;-80
2022/05/05 11:32:11;;;;;;;;;;;14.90;97.40;;;;;;4349854;33;42418;-79
2022/05/05 11:34:41;;;;;;;;;;;14.90;97.30;;;;;;4349942;32;44971;-80
2022/05/05 11:37:13;;;;;;;;;;;14.90;97.40;;;;;;4350344;33;20009;-81
2022/05/05 11:39:48;;;;;;;;;;;14.90;97.40;;;;;;4361312;32;44970;-80
2022/05/05 11:42:15;;;;;;;;;;;14.90;97.40;;;;;;4348967;33;42811;-80
2022/05/05 11:44:46;;;;;;;;;;;14.90;97.30;;;;;;4349769;33;44227;-80
2022/05/05 11:47:14;;;;;;;;;;;14.90;97.30;;;;;;4350041;32;45059;-80
2022/05/05 11:49:44;;;;;;;;;;;14.90;97.30;;;;;;4360818;32;43289;-80
2022/05/05 11:52:17;;;;;;;;;;;14.90;97.40;;;;;;4348836;33;43718;-80
2022/05/05 11:54:48;;;;;;;;;;;14.90;97.40;;;;;;4349474;33;43250;-80
2022/05/05 11:57:35;;;;;;;;;;;14.90;97.40;;;;;;4349952;33;44099;-80
2022/05/05 12:02:50;;;;;;;;;;;15.00;97.40;;;;;;4358708;32;44083;-80
2022/05/05 12:05:18;;;;;;;;;;;15.00;97.50;;;;;;4364548;32;43351;-80
2022/05/05 12:07:48;;;;;;;;;;;15.00;97.60;;;;;;4352078;32;19997;-80
2022/05/05 12:10:15;;;;;;;;;;;15.00;97.60;;;;;;4351222;32;44247;-80
2022/05/05 12:12:46;;;;;;;;;;;15.00;97.60;;;;;;4364323;32;42601;-80
2022/05/05 12:15:14;;;;;;;;;;;15.00;97.60;;;;;;4363540;32;43567;-79
2022/05/05 12:17:46;;;;;;;;;;;15.00;97.60;;;;;;4360960;32;43470;-80
2022/05/05 12:20:16;;;;;;;;;;;15.00;97.60;;;;;;4362188;32;43074;-80
2022/05/05 12:22:53;;;;;;;;;;;15.00;97.50;;;;;;4362180;32;43260;-80
2022/05/05 12:25:24;;;;;;;;;;;15.10;97.50;;;;;;4361358;32;44188;-80
2022/05/05 12:28:03;;;;;;;;;;;15.00;97.60;;;;;;4362079;32;44526;-80
2022/05/05 12:30:34;;;;;;;;;;;15.10;97.60;;;;;;4348593;32;42588;-81
2022/05/05 12:33:05;;;;;;;;;;;15.10;97.60;;;;;;4361536;32;45851;-80
2022/05/05 12:35:41;;;;;;;;;;;15.10;97.80;;;;;;4361661;32;42855;-80
2022/05/05 12:38:14;;;;;;;;;;;15.10;97.80;;;;;;4349060;32;20001;-80
2022/05/05 12:40:46;;;;;;;;;;;15.10;97.80;;;;;;4361746;32;44141;-80
2022/05/05 12:43:21;;;;;;;;;;;15.10;97.70;;;;;;4361960;32;42499;-80
2022/05/05 12:45:51;;;;;;;;;;;15.10;97.70;;;;;;4361896;32;43230;-80
2022/05/05 12:48:22;;;;;;;;;;;15.20;97.70;;;;;;4361434;32;43275;-80
2022/05/05 12:50:53;;;;;;;;;;;15.20;97.60;;;;;;4360937;32;44077;-80
2022/05/05 13:01:47;;;;;;;;;;;15.20;98.00;;;;;;4361566;32;43024;-80
2022/05/05 13:04:15;;;;;;;;;;;15.30;98.20;;;;;;4361543;32;45738;-80
2022/05/05 13:06:43;;;;;;;;;;;15.30;98.30;;;;;;4361071;32;43197;-80
2022/05/05 13:09:10;;;;;;;;;;;15.30;98.20;;;;;;4362111;32;20351;-80
2022/05/05 13:11:41;;;;;;;;;;;15.30;98.20;;;;;;4361493;32;44925;-79
2022/05/05 13:14:09;;;;;;;;;;;15.30;98.10;;;;;;4360538;32;43285;-80
2022/05/05 13:16:36;;;;;;;;;;;15.30;98.00;;;;;;4360998;32;43382;-79
2022/05/05 13:19:04;;;;;;;;;;;15.30;98.00;;;;;;4347991;32;43577;-79
2022/05/05 13:21:36;;;;;;;;;;;15.30;97.90;;;;;;4359780;32;42934;-79
2022/05/05 13:24:03;;;;;;;;;;;15.30;97.90;;;;;;4347809;32;43788;-80
2022/05/05 13:26:33;;;;;;;;;;;15.30;97.90;;;;;;4360875;32;42604;-80
2022/05/05 13:29:03;;;;;;;;;;;15.30;97.90;;;;;;4360513;32;42615;-80
2022/05/05 13:31:30;;;;;;;;;;;15.30;97.80;;;;;;4360099;32;44945;-80
2022/05/05 13:33:57;;;;;;;;;;;15.30;97.80;;;;;;4361036;32;46001;-80
2022/05/05 13:36:27;;;;;;;;;;;15.30;97.90;;;;;;4347367;32;42478;-80
2022/05/05 13:38:57;;;;;;;;;;;15.40;97.90;;;;;;4360526;32;44100;-80
2022/05/05 13:41:31;;;;;;;;;;;15.30;97.80;;;;;;4360981;32;43718;-80
2022/05/05 13:44:04;;;;;;;;;;;15.40;97.90;;;;;;4360905;32;44054;-80
2022/05/05 13:46:31;;;;;;;;;;;15.40;97.80;;;;;;4347668;32;43210;-80
2022/05/05 13:48:59;;;;;;;;;;;15.40;97.80;;;;;;4347311;32;42642;-80
2022/05/05 13:51:29;;;;;;;;;;;15.40;97.80;;;;;;4359744;32;43310;-80
2022/05/05 13:53:56;;;;;;;;;;;15.40;97.80;;;;;;4347505;32;43192;-80
2022/05/05 13:56:24;;;;;;;;;;;15.40;97.80;;;;;;4359245;32;43641;-80
2022/05/05 13:58:54;;;;;;;;;;;15.40;97.80;;;;;;4346934;32;44195;-80
2022/05/05 14:01:21;;;;;;;;;;;15.40;97.80;;;;;;4347027;32;43422;-80
2022/05/05 14:03:54;;;;;;;;;;;15.40;97.80;;;;;;4346965;32;42040;-81
2022/05/05 14:06:24;;;;;;;;;;;15.40;97.80;;;;;;4360873;32;43905;-81
2022/05/05 14:14:22;;;;;;;;;;;15.50;97.70;;;;;;4360520;32;42778;-80
2022/05/05 14:16:49;;;;;;;;;;;15.50;97.70;;;;;;4346838;32;42544;-82
2022/05/05 14:19:17;;;;;;;;;;;15.50;97.60;;;;;;4360037;32;43812;-80
2022/05/05 14:21:47;;;;;;;;;;;15.50;97.50;;;;;;4346761;32;44196;-80
2022/05/05 14:24:19;;;;;;;;;;;15.50;97.40;;;;;;4359413;32;42898;-80
2022/05/05 14:26:49;;;;;;;;;;;15.50;97.50;;;;;;4360418;32;45847;-80
2022/05/05 14:29:19;;;;;;;;;;;15.50;97.40;;;;;;4359172;32;43448;-81
2022/05/05 14:31:48;;;;;;;;;;;15.50;97.40;;;;;;4346995;32;44614;-81
2022/05/05 14:34:21;;;;;;;;;;;15.50;97.40;;;;;;4358696;32;43909;-81
2022/05/05 14:36:52;;;;;;;;;;;15.50;97.40;;;;;;4360382;32;44180;-81
2022/05/05 14:39:19;;;;;;;;;;;15.50;97.40;;;;;;4346236;33;43048;-81
2022/05/05 14:41:47;;;;;;;;;;;15.50;97.40;;;;;;4346792;32;45366;-81
2022/05/05 14:44:17;;;;;;;;;;;15.60;97.40;;;;;;4359885;32;43772;-81
2022/05/05 14:46:44;;;;;;;;;;;15.60;97.40;;;;;;4360376;32;43920;-80
2022/05/05 14:49:20;;;;;;;;;;;15.50;97.30;;;;;;4346384;32;44293;-80
2022/05/05 14:51:47;;;;;;;;;;;15.50;97.40;;;;;;4359177;32;44066;-80
2022/05/05 14:54:14;;;;;;;;;;;15.60;97.40;;;;;;4360031;32;42481;-80
2022/05/05 14:56:44;;;;;;;;;;;15.60;97.40;;;;;;4359635;32;44134;-80
2022/05/05 14:59:11;;;;;;;;;;;15.60;97.40;;;;;;4359508;32;43001;-80
2022/05/05 15:01:38;;;;;;;;;;;15.60;97.40;;;;;;4346387;33;44183;-80
2022/05/05 15:04:08;;;;;;;;;;;15.60;97.30;;;;;;4359587;33;43355;-80
2022/05/05 15:06:38;;;;;;;;;;;15.60;97.40;;;;;;4359561;33;43804;-80
2022/05/05 15:09:06;;;;;;;;;;;15.60;97.30;;;;;;4346769;33;44398;-80
2022/05/05 15:11:37;;;;;;;;;;;15.60;97.20;;;;;;4347469;33;20047;-79
2022/05/05 15:14:04;;;;;;;;;;;15.60;97.20;;;;;;4360050;33;43263;-80
2022/05/05 15:16:32;;;;;;;;;;;15.60;97.30;;;;;;4359893;33;43768;-80
2022/05/05 15:19:02;;;;;;;;;;;15.70;97.30;;;;;;4359415;33;42890;-80
2022/05/05 15:21:29;;;;;;;;;;;15.70;97.30;;;;;;4359999;33;41794;-80
2022/05/05 15:24:02;;;;;;;;;;;15.70;97.30;;;;;;4346454;33;43435;-80